sensor_id;sensor_type;location;lat;lon;timestamp;temperature;humidity
15152;DHT22;7676;50.900;6.234;2023-06-26T00:07:22;26.60;99.90
15152;DHT22;7676;50.900;6.234;2023-06-26T00:22:25;26.60;99.90
15152;DHT22;7676;50.900;6.234;2023-06-26T00:37:30;26.60;99.90
15152;DHT22;7676;50.900;6.234;2023-06-26T00:52:35;26.70;99.90
15152;DHT22;7676;50.900;6.234;2023-06-26T01:07:39;26.60;99.90
15152;DHT22;7676;50.900;6.234;2023-06-26T01:38:17;26.20;99.90
15152;DHT22;7676;50.900;6.234;2023-06-26T01:53:24;25.60;99.90
15152;DHT22;7676;50.900;6.234;2023-06-26T02:08:28;25.50;99.90
15152;DHT22;7676;50.900;6.234;2023-06-26T02:23:32;24.90;99.90
15152;DHT22;7676;50.900;6.234;2023-06-26T02:38:35;24.40;99.90
15152;DHT22;7676;50.900;6.234;2023-06-26T02:53:38;24.50;99.90
15152;DHT22;7676;50.900;6.234;2023-06-26T03:08:44;24.20;99.90
15152;DHT22;7676;50.900;6.234;2023-06-26T03:23:50;23.90;99.90
15152;DHT22;7676;50.900;6.234;2023-06-26T03:38:53;23.40;99.90
15152;DHT22;7676;50.900;6.234;2023-06-26T03:54:00;23.30;99.90
15152;DHT22;7676;50.900;6.234;2023-06-26T04:09:03;23.00;99.90
15152;DHT22;7676;50.900;6.234;2023-06-26T04:24:07;22.60;99.90
15152;DHT22;7676;50.900;6.234;2023-06-26T04:39:10;22.60;99.90
15152;DHT22;7676;50.900;6.234;2023-06-26T04:54:14;22.50;99.90
15152;DHT22;7676;50.900;6.234;2023-06-26T05:09:18;23.40;99.90
15152;DHT22;7676;50.900;6.234;2023-06-26T05:24:26;23.10;99.90
15152;DHT22;7676;50.900;6.234;2023-06-26T05:39:30;24.00;99.90
15152;DHT22;7676;50.900;6.234;2023-06-26T05:54:33;24.00;99.90
15152;DHT22;7676;50.900;6.234;2023-06-26T06:09:36;24.60;99.90
15152;DHT22;7676;50.900;6.234;2023-06-26T06:24:40;25.10;99.90
15152;DHT22;7676;50.900;6.234;2023-06-26T06:39:44;24.10;99.90
15152;DHT22;7676;50.900;6.234;2023-06-26T06:54:54;24.40;99.90
15152;DHT22;7676;50.900;6.234;2023-06-26T07:10:03;25.20;99.90
15152;DHT22;7676;50.900;6.234;2023-06-26T07:25:06;25.80;99.90
15152;DHT22;7676;50.900;6.234;2023-06-26T07:40:13;25.90;99.90
15152;DHT22;7676;50.900;6.234;2023-06-26T07:55:20;25.80;99.90
15152;DHT22;7676;50.900;6.234;2023-06-26T08:10:22;25.90;99.90
15152;DHT22;7676;50.900;6.234;2023-06-26T08:25:25;25.70;99.90
15152;DHT22;7676;50.900;6.234;2023-06-26T08:40:30;25.90;99.90
15152;DHT22;7676;50.900;6.234;2023-06-26T08:55:38;25.80;99.90
15152;DHT22;7676;50.900;6.234;2023-06-26T09:10:43;26.20;99.90
15152;DHT22;7676;50.900;6.234;2023-06-26T09:25:48;26.20;99.90
15152;DHT22;7676;50.900;6.234;2023-06-26T09:40:51;26.20;99.90
15152;DHT22;7676;50.900;6.234;2023-06-26T09:55:54;26.30;99.90
15152;DHT22;7676;50.900;6.234;2023-06-26T10:10:57;26.80;99.90
15152;DHT22;7676;50.900;6.234;2023-06-26T10:26:01;26.90;99.90
15152;DHT22;7676;50.900;6.234;2023-06-26T10:41:13;27.40;99.90
15152;DHT22;7676;50.900;6.234;2023-06-26T10:56:20;28.50;99.90
15152;DHT22;7676;50.900;6.234;2023-06-26T11:27:00;27.60;99.90
15152;DHT22;7676;50.900;6.234;2023-06-26T11:42:04;28.10;99.90
15152;DHT22;7676;50.900;6.234;2023-06-26T11:57:07;28.20;99.90
15152;DHT22;7676;50.900;6.234;2023-06-26T12:12:12;28.20;98.80
15152;DHT22;7676;50.900;6.234;2023-06-26T12:27:18;28.00;95.00
15152;DHT22;7676;50.900;6.234;2023-06-26T12:42:28;27.60;98.60
15152;DHT22;7676;50.900;6.234;2023-06-26T12:57:31;27.40;98.20
15152;DHT22;7676;50.900;6.234;2023-06-26T13:12:34;26.80;95.40
15152;DHT22;7676;50.900;6.234;2023-06-26T13:27:37;27.10;95.00
15152;DHT22;7676;50.900;6.234;2023-06-26T13:42:39;27.00;93.10
15152;DHT22;7676;50.900;6.234;2023-06-26T13:57:55;26.50;94.40
15152;DHT22;7676;50.900;6.234;2023-06-26T14:13:01;26.70;94.90
15152;DHT22;7676;50.900;6.234;2023-06-26T14:28:05;26.50;93.10
15152;DHT22;7676;50.900;6.234;2023-06-26T14:43:13;26.90;92.60
15152;DHT22;7676;50.900;6.234;2023-06-26T14:58:16;27.10;92.20
15152;DHT22;7676;50.900;6.234;2023-06-26T15:13:27;26.90;91.90
15152;DHT22;7676;50.900;6.234;2023-06-26T15:28:30;25.30;92.90
15152;DHT22;7676;50.900;6.234;2023-06-26T15:43:36;25.60;95.10
15152;DHT22;7676;50.900;6.234;2023-06-26T15:58:39;24.70;93.80
15152;DHT22;7676;50.900;6.234;2023-06-26T16:13:47;24.70;95.30
15152;DHT22;7676;50.900;6.234;2023-06-26T16:28:52;25.30;94.40
15152;DHT22;7676;50.900;6.234;2023-06-26T16:43:55;25.10;94.90
15152;DHT22;7676;50.900;6.234;2023-06-26T16:58:57;24.50;95.70
15152;DHT22;7676;50.900;6.234;2023-06-26T17:14:00;24.60;95.30
15152;DHT22;7676;50.900;6.234;2023-06-26T17:29:03;24.20;94.30
15152;DHT22;7676;50.900;6.234;2023-06-26T17:44:07;23.70;97.20
15152;DHT22;7676;50.900;6.234;2023-06-26T17:59:14;22.40;99.90
15152;DHT22;7676;50.900;6.234;2023-06-26T18:14:24;22.00;99.90
15152;DHT22;7676;50.900;6.234;2023-06-26T18:29:31;22.40;99.90
15152;DHT22;7676;50.900;6.234;2023-06-26T18:44:37;22.40;99.90
15152;DHT22;7676;50.900;6.234;2023-06-26T18:59:40;22.80;99.90
15152;DHT22;7676;50.900;6.234;2023-06-26T19:14:42;22.80;99.90
15152;DHT22;7676;50.900;6.234;2023-06-26T19:30:02;22.80;99.90
15152;DHT22;7676;50.900;6.234;2023-06-26T19:45:06;22.60;99.90
15152;DHT22;7676;50.900;6.234;2023-06-26T20:00:12;22.70;99.90
15152;DHT22;7676;50.900;6.234;2023-06-26T20:15:32;22.60;99.90
15152;DHT22;7676;50.900;6.234;2023-06-26T20:30:36;22.60;99.90
15152;DHT22;7676;50.900;6.234;2023-06-26T20:45:41;22.50;99.90
15152;DHT22;7676;50.900;6.234;2023-06-26T21:00:46;22.50;99.90
15152;DHT22;7676;50.900;6.234;2023-06-26T21:15:49;22.30;99.90
15152;DHT22;7676;50.900;6.234;2023-06-26T21:30:52;22.50;99.90
15152;DHT22;7676;50.900;6.234;2023-06-26T21:45:55;22.30;99.90
15152;DHT22;7676;50.900;6.234;2023-06-26T22:01:04;22.10;99.90
15152;DHT22;7676;50.900;6.234;2023-06-26T22:16:11;21.80;99.90
15152;DHT22;7676;50.900;6.234;2023-06-26T22:31:13;21.70;99.90
15152;DHT22;7676;50.900;6.234;2023-06-26T22:46:16;21.80;99.90
15152;DHT22;7676;50.900;6.234;2023-06-26T23:01:19;21.70;99.90
15152;DHT22;7676;50.900;6.234;2023-06-26T23:16:22;21.60;99.90
15152;DHT22;7676;50.900;6.234;2023-06-26T23:31:26;21.40;99.90
15152;DHT22;7676;50.900;6.234;2023-06-26T23:46:33;21.30;99.90
